createdAt,value
2019-03-30T00:00:59.352Z,95.94
2019-03-30T00:01:59.344Z,96.19
2019-03-30T00:02:59.337Z,96.19
2019-03-30T00:03:59.324Z,96.08
2019-03-30T00:04:59.312Z,95.87
2019-03-30T00:05:59.300Z,95.67
2019-03-30T00:06:59.289Z,95.52
2019-03-30T00:07:59.276Z,95.77
2019-03-30T00:08:59.274Z,95.67
2019-03-30T00:09:59.261Z,95.77
2019-03-30T00:10:59.260Z,95.77
2019-03-30T00:11:59.244Z,95.77
2019-03-30T00:12:59.237Z,95.87
2019-03-30T00:13:59.218Z,95.87
2019-03-30T00:14:59.202Z,95.87
2019-03-30T00:15:59.203Z,95.77
2019-03-30T00:16:59.191Z,95.77
2019-03-30T00:17:59.175Z,95.77
2019-03-30T00:18:59.162Z,95.92
2019-03-30T00:19:59.155Z,95.87
2019-03-30T00:20:59.149Z,95.92
2019-03-30T00:21:59.129Z,96.19
2019-03-30T00:22:59.132Z,95.71
2019-03-30T00:23:59.107Z,95.71
2019-03-30T00:24:59.097Z,96.23
2019-03-30T00:25:59.096Z,96.12
2019-03-30T00:26:59.088Z,96.44
2019-03-30T00:27:59.067Z,96.33
2019-03-30T00:28:59.055Z,96.64
2019-03-30T00:29:59.047Z,96.95
2019-03-30T00:30:59.035Z,96.33
2019-03-30T00:31:59.045Z,96.89
2019-03-30T00:32:59.019Z,96.64
2019-03-30T00:33:59.009Z,96.64
2019-03-30T00:34:58.998Z,96.44
2019-03-30T00:35:58.979Z,96.64
2019-03-30T00:36:58.975Z,96.33
2019-03-30T00:37:58.963Z,96.02
2019-03-30T00:38:58.955Z,96.23
2019-03-30T00:39:58.936Z,96.95
2019-03-30T00:40:58.934Z,96.64
2019-03-30T00:41:58.921Z,96.58
2019-03-30T00:42:58.907Z,96.44
2019-03-30T00:43:58.895Z,96.33
2019-03-30T00:44:58.884Z,96.33
2019-03-30T00:45:58.875Z,96.64
2019-03-30T00:46:58.865Z,96.64
2019-03-30T00:47:58.856Z,96.06
2019-03-30T00:48:58.849Z,96.69
2019-03-30T00:49:58.833Z,96.64
2019-03-30T00:50:58.830Z,96.44
2019-03-30T00:51:58.815Z,96.44
2019-03-30T00:52:58.802Z,96.33
2019-03-30T00:53:58.793Z,96.44
2019-03-30T00:54:58.784Z,96.44
2019-03-30T00:55:58.775Z,96.64
2019-03-30T00:56:58.764Z,96.64
2019-03-30T00:57:58.757Z,96.48
2019-03-30T00:58:58.738Z,96.54
2019-03-30T00:59:58.733Z,96.44
2019-03-30T01:00:58.720Z,96.02
2019-03-30T01:01:58.717Z,96.33
2019-03-30T01:02:58.697Z,96.54
2019-03-30T01:03:58.690Z,96.75
2019-03-30T01:04:58.669Z,96.64
2019-03-30T01:05:58.671Z,96.64
2019-03-30T01:06:58.655Z,96.64
2019-03-30T01:07:58.649Z,96.79
2019-03-30T01:08:58.631Z,96.58
2019-03-30T01:09:58.620Z,96.48
2019-03-30T01:10:58.613Z,96.79
2019-03-30T01:11:58.609Z,97.31
2019-03-30T01:12:58.593Z,97.41
2019-03-30T01:13:58.582Z,97.31
2019-03-30T01:14:58.568Z,97.62
2019-03-30T01:15:58.552Z,97.00
2019-03-30T01:16:58.548Z,97.77
2019-03-30T01:17:58.533Z,97.41
2019-03-30T01:18:58.533Z,98.13
2019-03-30T01:20:03.152Z,97.93
2019-03-30T01:20:59.500Z,98.13
2019-03-30T01:21:58.495Z,98.44
2019-03-30T01:22:58.479Z,98.24
2019-03-30T01:23:58.470Z,98.34
2019-03-30T01:24:58.461Z,98.13
2019-03-30T01:25:58.448Z,98.03
2019-03-30T01:26:58.442Z,98.24
2019-03-30T01:27:58.429Z,97.83
2019-03-30T01:28:58.423Z,97.93
2019-03-30T01:29:58.416Z,97.72
2019-03-30T01:30:58.403Z,97.72
2019-03-30T01:31:58.384Z,97.72
2019-03-30T01:32:58.369Z,97.41
2019-03-30T01:33:58.362Z,97.62
2019-03-30T01:34:58.398Z,97.10
2019-03-30T01:35:58.415Z,97.62
2019-03-30T01:36:58.327Z,97.20
2019-03-30T01:37:58.334Z,97.62
2019-03-30T01:38:58.307Z,97.97
2019-03-30T01:39:58.302Z,97.72
2019-03-30T01:40:58.282Z,98.13
2019-03-30T01:41:58.280Z,98.34
2019-03-30T01:42:58.264Z,97.83
2019-03-30T01:43:58.256Z,98.24
2019-03-30T01:44:58.242Z,98.13
2019-03-30T01:45:58.240Z,97.72
2019-03-30T01:46:58.221Z,97.83
2019-03-30T01:47:58.217Z,98.03
2019-03-30T01:48:58.200Z,98.13
2019-03-30T01:49:58.210Z,98.34
2019-03-30T01:50:58.180Z,98.03
2019-03-30T01:51:58.166Z,97.72
2019-03-30T01:52:58.154Z,97.41
2019-03-30T01:53:58.146Z,97.41
2019-03-30T01:54:58.135Z,97.00
2019-03-30T01:55:58.131Z,97.41
2019-03-30T01:56:58.119Z,97.31
2019-03-30T01:57:58.108Z,97.52
2019-03-30T01:58:58.096Z,97.66
2019-03-30T01:59:58.083Z,97.52
2019-03-30T02:00:58.068Z,97.83
2019-03-30T02:01:58.063Z,97.72
2019-03-30T02:02:58.054Z,97.62
2019-03-30T02:03:58.038Z,97.66
2019-03-30T02:04:58.034Z,97.62
2019-03-30T02:05:58.016Z,97.62
2019-03-30T02:06:58.009Z,97.20
2019-03-30T02:07:57.998Z,97.31
2019-03-30T02:08:57.984Z,97.20
2019-03-30T02:09:57.974Z,97.41
2019-03-30T02:10:57.964Z,97.66
2019-03-30T02:11:57.957Z,97.20
2019-03-30T02:12:57.944Z,97.31
2019-03-30T02:13:57.934Z,96.89
2019-03-30T02:14:57.921Z,97.31
2019-03-30T02:15:57.915Z,97.35
2019-03-30T02:16:57.901Z,97.20
2019-03-30T02:17:57.886Z,97.56
2019-03-30T02:18:57.876Z,97.56
2019-03-30T02:19:57.874Z,97.62
2019-03-30T02:20:57.863Z,97.52
2019-03-30T02:21:57.872Z,97.52
2019-03-30T02:22:57.834Z,97.52
2019-03-30T02:23:57.818Z,97.31
2019-03-30T02:24:57.830Z,97.31
2019-03-30T02:25:57.806Z,97.35
2019-03-30T02:26:57.804Z,97.66
2019-03-30T02:27:57.777Z,97.45
2019-03-30T02:28:57.774Z,97.00
2019-03-30T02:29:57.762Z,97.35
2019-03-30T02:30:57.756Z,97.14
2019-03-30T02:31:57.743Z,97.52
2019-03-30T02:32:57.727Z,97.72
2019-03-30T02:33:57.716Z,97.41
2019-03-30T02:34:57.706Z,97.62
2019-03-30T02:35:57.697Z,97.41
2019-03-30T02:36:57.700Z,97.41
2019-03-30T02:37:57.684Z,97.52
2019-03-30T02:38:57.688Z,97.41
2019-03-30T02:39:57.648Z,97.93
2019-03-30T02:40:57.647Z,97.72
2019-03-30T02:41:57.635Z,97.62
2019-03-30T02:42:57.622Z,97.62
2019-03-30T02:43:57.615Z,97.62
2019-03-30T02:44:57.602Z,98.08
2019-03-30T02:45:57.583Z,97.87
2019-03-30T02:46:57.571Z,99.01
2019-03-30T02:47:57.578Z,98.60
2019-03-30T02:48:57.567Z,98.70
2019-03-30T02:49:57.558Z,98.91
2019-03-30T02:50:57.525Z,99.01
2019-03-30T02:51:57.519Z,98.91
2019-03-30T02:52:57.522Z,99.43
2019-03-30T02:53:57.500Z,99.32
2019-03-30T02:54:57.495Z,99.73
2019-03-30T02:55:57.506Z,99.73
2019-03-30T02:56:57.468Z,99.52
2019-03-30T02:57:57.456Z,99.52
2019-03-30T02:58:57.448Z,99.32
2019-03-30T02:59:57.443Z,99.01
2019-03-30T03:00:57.435Z,98.80
2019-03-30T03:01:57.418Z,99.01
2019-03-30T03:02:57.407Z,99.32
2019-03-30T03:03:57.393Z,99.43
2019-03-30T03:04:57.379Z,99.32
2019-03-30T03:05:57.369Z,99.22
2019-03-30T03:06:57.366Z,99.01
2019-03-30T03:07:57.348Z,99.63
2019-03-30T03:08:57.339Z,99.22
2019-03-30T03:09:57.323Z,99.52
2019-03-30T03:10:57.317Z,99.84
2019-03-30T03:11:57.314Z,99.99
2019-03-30T03:12:57.306Z,99.99
2019-03-30T03:13:57.279Z,99.99
2019-03-30T03:14:57.273Z,99.99
2019-03-30T03:15:57.265Z,99.94
2019-03-30T03:16:57.249Z,99.99
2019-03-30T03:17:57.249Z,99.48
2019-03-30T03:18:57.230Z,99.01
2019-03-30T03:19:57.219Z,98.91
2019-03-30T03:21:07.490Z,99.52
2019-03-30T03:21:58.205Z,99.43
2019-03-30T03:22:57.187Z,99.43
2019-03-30T03:23:57.180Z,99.01
2019-03-30T03:24:57.168Z,98.80
2019-03-30T03:25:57.158Z,99.01
2019-03-30T03:26:57.143Z,99.32
2019-03-30T03:27:57.127Z,99.22
2019-03-30T03:28:57.122Z,98.60
2019-03-30T03:29:57.128Z,98.28
2019-03-30T03:30:57.101Z,98.39
2019-03-30T03:31:57.109Z,98.18
2019-03-30T03:32:57.077Z,98.39
2019-03-30T03:33:57.069Z,98.80
2019-03-30T03:34:57.062Z,98.60
2019-03-30T03:35:57.043Z,98.95
2019-03-30T03:36:57.037Z,98.60
2019-03-30T03:37:57.028Z,99.05
2019-03-30T03:38:57.016Z,98.64
2019-03-30T03:39:57.007Z,98.18
2019-03-30T03:40:57.000Z,99.37
2019-03-30T03:41:56.983Z,99.01
2019-03-30T03:42:56.971Z,98.80
2019-03-30T03:43:56.965Z,99.37
2019-03-30T03:44:56.954Z,99.57
2019-03-30T03:45:56.946Z,99.57
2019-03-30T03:46:56.926Z,99.99
2019-03-30T03:47:56.928Z,99.99
2019-03-30T03:48:56.910Z,99.99
2019-03-30T03:49:56.903Z,99.78
2019-03-30T03:50:56.884Z,99.78
2019-03-30T03:51:56.874Z,99.99
2019-03-30T03:52:56.874Z,99.99
2019-03-30T03:53:56.987Z,99.99
2019-03-30T03:54:56.845Z,99.99
2019-03-30T03:55:56.841Z,99.99
2019-03-30T03:56:56.816Z,99.99
2019-03-30T03:57:56.813Z,99.99
2019-03-30T03:58:56.801Z,99.99
2019-03-30T03:59:56.791Z,99.57
2019-03-30T04:00:56.781Z,99.68
2019-03-30T04:01:56.778Z,99.57
2019-03-30T04:02:56.762Z,99.47
2019-03-30T04:03:56.756Z,99.57
2019-03-30T04:04:56.737Z,99.68
2019-03-30T04:05:56.738Z,99.16
2019-03-30T04:06:56.709Z,99.26
2019-03-30T04:07:56.702Z,99.47
2019-03-30T04:08:56.701Z,99.26
2019-03-30T04:09:56.679Z,99.47
2019-03-30T04:10:56.679Z,98.95
2019-03-30T04:11:56.677Z,99.16
2019-03-30T04:12:56.647Z,98.85
2019-03-30T04:13:56.641Z,98.33
2019-03-30T04:14:56.632Z,98.85
2019-03-30T04:15:56.615Z,98.64
2019-03-30T04:16:56.618Z,98.38
2019-03-30T04:17:56.593Z,98.07
2019-03-30T04:18:56.594Z,98.38
2019-03-30T04:19:56.575Z,97.96
2019-03-30T04:20:56.559Z,98.48
2019-03-30T04:21:56.548Z,98.90
2019-03-30T04:22:56.550Z,98.69
2019-03-30T04:23:56.530Z,98.69
2019-03-30T04:24:56.526Z,99.00
2019-03-30T04:25:56.513Z,99.99
2019-03-30T04:26:56.508Z,99.99
2019-03-30T04:27:56.487Z,99.99
2019-03-30T04:28:56.486Z,99.99
2019-03-30T04:29:56.471Z,99.99
2019-03-30T04:30:56.457Z,99.99
2019-03-30T04:31:56.558Z,99.99
2019-03-30T04:32:56.451Z,99.99
2019-03-30T04:33:56.425Z,99.99
2019-03-30T04:34:56.417Z,99.99
2019-03-30T04:35:56.403Z,99.99
2019-03-30T04:36:56.394Z,99.99
2019-03-30T04:37:56.388Z,99.99
2019-03-30T04:38:56.370Z,99.99
2019-03-30T04:39:56.366Z,99.99
2019-03-30T04:40:56.354Z,99.99
2019-03-30T04:41:56.339Z,99.99
2019-03-30T04:42:56.332Z,99.99
2019-03-30T04:43:56.316Z,99.99
2019-03-30T04:44:56.306Z,99.99
2019-03-30T04:45:56.293Z,99.99
2019-03-30T04:46:56.286Z,99.99
2019-03-30T04:47:56.282Z,99.99
2019-03-30T04:48:56.275Z,99.99
2019-03-30T04:49:56.255Z,99.99
2019-03-30T04:50:56.240Z,99.99
2019-03-30T04:51:57.649Z,99.99
2019-03-30T04:52:56.228Z,99.99
2019-03-30T04:53:56.212Z,99.99
2019-03-30T04:54:56.211Z,99.99
2019-03-30T04:55:56.188Z,99.99
2019-03-30T04:56:56.180Z,99.99
2019-03-30T04:57:57.704Z,99.99
2019-03-30T04:58:56.157Z,99.99
2019-03-30T04:59:56.156Z,99.93
2019-03-30T05:00:56.136Z,99.99
2019-03-30T05:01:56.127Z,99.99
2019-03-30T05:02:56.204Z,99.99
2019-03-30T05:03:56.105Z,99.99
2019-03-30T05:04:56.093Z,99.99
2019-03-30T05:05:56.107Z,99.99
2019-03-30T05:06:56.074Z,99.99
2019-03-30T05:07:56.056Z,99.99
2019-03-30T05:08:56.050Z,99.99
2019-03-30T05:09:56.049Z,99.99
2019-03-30T05:10:56.045Z,99.99
2019-03-30T05:11:56.026Z,99.99
2019-03-30T05:12:56.011Z,99.99
2019-03-30T05:13:55.998Z,99.99
2019-03-30T05:14:55.987Z,99.72
2019-03-30T05:15:55.972Z,99.99
2019-03-30T05:16:55.972Z,99.93
2019-03-30T05:17:55.954Z,99.82
2019-03-30T05:18:55.948Z,99.99
2019-03-30T05:19:55.928Z,99.88
2019-03-30T05:20:55.917Z,99.99
2019-03-30T05:21:55.924Z,99.99
2019-03-30T05:22:55.902Z,99.99
2019-03-30T05:23:55.886Z,99.99
2019-03-30T05:24:55.882Z,99.37
2019-03-30T05:25:55.864Z,99.26
2019-03-30T05:26:55.860Z,99.37
2019-03-30T05:27:55.851Z,99.05
2019-03-30T05:28:55.845Z,99.47
2019-03-30T05:29:55.826Z,99.11
2019-03-30T05:30:55.818Z,99.11
2019-03-30T05:31:55.805Z,99.11
2019-03-30T05:33:05.447Z,99.22
2019-03-30T05:33:56.789Z,98.91
2019-03-30T05:34:55.785Z,98.49
2019-03-30T05:35:55.761Z,98.60
2019-03-30T05:36:55.750Z,98.80
2019-03-30T05:37:55.744Z,98.60
2019-03-30T05:38:55.741Z,98.18
2019-03-30T05:39:55.730Z,99.01
2019-03-30T05:40:55.784Z,98.60
2019-03-30T05:41:55.694Z,98.49
2019-03-30T05:42:55.684Z,98.24
2019-03-30T05:43:55.701Z,98.24
2019-03-30T05:44:57.828Z,98.86
2019-03-30T05:45:55.659Z,98.86
2019-03-30T05:46:55.637Z,98.18
2019-03-30T05:47:55.635Z,98.03
2019-03-30T05:48:55.623Z,98.24
2019-03-30T05:49:55.684Z,98.49
2019-03-30T05:50:55.610Z,97.93
2019-03-30T05:51:55.583Z,98.44
2019-03-30T05:52:55.585Z,97.83
2019-03-30T05:53:55.567Z,98.44
2019-03-30T05:54:55.562Z,97.72
2019-03-30T05:55:55.557Z,97.83
2019-03-30T05:56:55.539Z,97.62
2019-03-30T05:57:55.522Z,97.83
2019-03-30T05:58:55.514Z,97.26
2019-03-30T05:59:56.043Z,97.47
2019-03-30T06:00:55.514Z,97.78
2019-03-30T06:01:55.486Z,97.26
2019-03-30T06:02:55.476Z,97.16
2019-03-30T06:03:55.462Z,97.26
2019-03-30T06:04:55.457Z,96.39
2019-03-30T06:05:55.442Z,96.29
2019-03-30T06:06:55.454Z,96.39
2019-03-30T06:07:55.422Z,96.08
2019-03-30T06:08:55.413Z,96.08
2019-03-30T06:09:55.400Z,96.08
2019-03-30T06:10:55.386Z,95.56
2019-03-30T06:11:55.385Z,95.48
2019-03-30T06:12:55.375Z,94.71
2019-03-30T06:13:55.364Z,92.31
2019-03-30T06:14:55.366Z,88.23
2019-03-30T06:15:55.334Z,84.75
2019-03-30T06:16:55.317Z,83.03
2019-03-30T06:17:55.317Z,80.38
2019-03-30T06:18:55.304Z,77.91
2019-03-30T06:19:55.298Z,75.59
2019-03-30T06:20:55.304Z,74.60
2019-03-30T06:21:55.266Z,72.72
2019-03-30T06:22:55.258Z,72.00
2019-03-30T06:23:55.255Z,72.92
2019-03-30T06:24:55.243Z,71.42
2019-03-30T06:25:55.231Z,69.45
2019-03-30T06:26:55.217Z,68.19
2019-03-30T06:27:55.211Z,68.16
2019-03-30T06:28:55.197Z,66.97
2019-03-30T06:29:55.176Z,66.70
2019-03-30T06:30:55.182Z,66.06
2019-03-30T06:31:55.164Z,65.75
2019-03-30T06:32:55.153Z,66.09
2019-03-30T06:33:55.140Z,67.35
2019-03-30T06:34:55.130Z,66.77
2019-03-30T06:35:55.118Z,68.23
2019-03-30T06:36:55.112Z,68.53
2019-03-30T06:37:55.093Z,67.93
2019-03-30T06:38:55.101Z,64.60
2019-03-30T06:39:55.074Z,63.73
2019-03-30T06:40:55.068Z,63.49
2019-03-30T06:41:55.065Z,62.75
2019-03-30T06:42:55.059Z,63.09
2019-03-30T06:43:55.026Z,62.21
2019-03-30T06:44:55.025Z,63.53
2019-03-30T06:45:55.019Z,62.78
2019-03-30T06:46:55.003Z,62.11
2019-03-30T06:47:54.996Z,61.60
2019-03-30T06:48:54.974Z,60.40
2019-03-30T06:49:54.964Z,58.85
2019-03-30T06:50:54.970Z,59.77
2019-03-30T06:51:55.016Z,60.99
2019-03-30T06:52:57.809Z,62.84
2019-03-30T06:53:54.926Z,64.60
2019-03-30T06:54:54.913Z,66.74
2019-03-30T06:55:54.911Z,68.77
2019-03-30T06:56:54.890Z,71.29
2019-03-30T06:57:54.913Z,73.57
2019-03-30T06:58:54.874Z,74.84
2019-03-30T06:59:54.866Z,75.79
2019-03-30T07:00:54.858Z,76.95
2019-03-30T07:01:54.850Z,77.61
2019-03-30T07:02:54.848Z,78.25
2019-03-30T07:03:54.850Z,78.05
2019-03-30T07:04:54.845Z,79.73
2019-03-30T07:05:54.793Z,80.49
2019-03-30T07:06:54.781Z,79.93
2019-03-30T07:07:54.776Z,80.65
2019-03-30T07:08:54.780Z,80.35
2019-03-30T07:09:54.753Z,80.21
2019-03-30T07:10:54.742Z,80.41
2019-03-30T07:11:54.727Z,79.45
2019-03-30T07:12:54.721Z,79.66
2019-03-30T07:13:54.712Z,79.41
2019-03-30T07:14:54.783Z,78.21
2019-03-30T07:15:54.689Z,77.39
2019-03-30T07:16:54.681Z,77.02
2019-03-30T07:17:54.664Z,77.73
2019-03-30T07:18:54.655Z,77.53
2019-03-30T07:19:54.641Z,77.73
2019-03-30T07:20:54.632Z,77.64
2019-03-30T07:21:54.619Z,77.60
2019-03-30T07:22:54.626Z,77.39
2019-03-30T07:23:54.608Z,76.78
2019-03-30T07:24:54.626Z,77.09
2019-03-30T07:25:54.582Z,77.09
2019-03-30T07:26:54.567Z,76.78
2019-03-30T07:27:54.560Z,77.39
2019-03-30T07:28:54.551Z,77.36
2019-03-30T07:29:54.537Z,75.48
2019-03-30T07:30:54.525Z,76.23
2019-03-30T07:31:54.510Z,75.79
2019-03-30T07:32:54.504Z,75.48
2019-03-30T07:33:54.494Z,75.48
2019-03-30T07:34:54.483Z,75.89
2019-03-30T07:35:54.470Z,75.75
2019-03-30T07:36:54.465Z,75.10
2019-03-30T07:37:54.453Z,73.84
2019-03-30T07:38:54.438Z,73.23
2019-03-30T07:39:54.432Z,71.94
2019-03-30T07:40:54.410Z,70.98
2019-03-30T07:41:54.409Z,69.93
2019-03-30T07:42:54.415Z,68.78
2019-03-30T07:43:54.385Z,68.21
2019-03-30T07:44:54.378Z,66.92
2019-03-30T07:45:54.364Z,64.70
2019-03-30T07:46:54.348Z,62.81
2019-03-30T07:47:54.346Z,58.97
2019-03-30T07:48:54.339Z,57.83
2019-03-30T07:49:54.324Z,58.69
2019-03-30T07:50:54.306Z,56.25
2019-03-30T07:51:54.307Z,53.98
2019-03-30T07:52:54.291Z,53.02
2019-03-30T07:53:54.284Z,50.93
2019-03-30T07:54:54.268Z,52.36
2019-03-30T07:56:07.440Z,55.65
2019-03-30T07:57:05.077Z,53.02
2019-03-30T07:57:55.283Z,52.94
2019-03-30T07:58:54.223Z,50.43
2019-03-30T07:59:54.222Z,48.22
2019-03-30T08:00:54.203Z,48.16
2019-03-30T08:01:54.196Z,47.25
2019-03-30T08:02:54.178Z,47.22
2019-03-30T08:03:54.190Z,45.83
2019-03-30T08:04:54.156Z,46.65
2019-03-30T08:05:54.561Z,44.70
2019-03-30T08:06:54.142Z,43.35
2019-03-30T08:07:54.120Z,43.09
2019-03-30T08:08:54.122Z,42.46
2019-03-30T08:09:54.115Z,40.36
2019-03-30T08:10:54.094Z,42.21
2019-03-30T08:11:54.086Z,41.88
2019-03-30T08:12:54.086Z,40.72
2019-03-30T08:13:54.076Z,39.50
2019-03-30T08:14:54.057Z,40.53
2019-03-30T08:15:54.056Z,41.25
2019-03-30T08:16:54.033Z,40.52
2019-03-30T08:17:54.021Z,45.02
2019-03-30T08:18:54.013Z,46.54
2019-03-30T08:19:54.004Z,46.59
2019-03-30T08:20:53.986Z,44.72
2019-03-30T08:21:53.985Z,45.59
2019-03-30T08:22:53.974Z,44.87
2019-03-30T08:23:53.964Z,44.52
2019-03-30T08:24:53.950Z,42.97
2019-03-30T08:25:53.942Z,44.80
2019-03-30T08:26:53.935Z,42.19
2019-03-30T08:27:53.921Z,40.88
2019-03-30T08:28:53.917Z,40.69
2019-03-30T08:29:53.909Z,43.12
2019-03-30T08:30:53.894Z,43.74
2019-03-30T08:31:53.879Z,41.52
2019-03-30T08:32:53.868Z,41.49
2019-03-30T08:33:53.856Z,40.47
2019-03-30T08:34:53.875Z,40.78
2019-03-30T08:35:53.845Z,40.36
2019-03-30T08:36:53.847Z,40.01
2019-03-30T08:37:53.821Z,40.25
2019-03-30T08:38:53.810Z,40.56
2019-03-30T08:39:53.859Z,38.54
2019-03-30T08:40:53.806Z,38.66
2019-03-30T08:41:53.783Z,39.50
2019-03-30T08:42:53.788Z,38.43
2019-03-30T08:43:53.759Z,37.21
2019-03-30T08:44:53.752Z,38.56
2019-03-30T08:45:53.733Z,38.76
2019-03-30T08:46:53.738Z,39.18
2019-03-30T08:47:53.725Z,40.19
2019-03-30T08:48:53.723Z,41.53
2019-03-30T08:49:53.698Z,41.53
2019-03-30T08:50:53.705Z,41.66
2019-03-30T08:51:53.682Z,40.69
2019-03-30T08:52:53.683Z,39.80
2019-03-30T08:53:54.742Z,38.45
2019-03-30T08:54:53.659Z,37.62
2019-03-30T08:55:53.672Z,37.05
2019-03-30T08:56:53.631Z,39.76
2019-03-30T08:57:53.627Z,39.14
2019-03-30T08:58:53.620Z,39.70
2019-03-30T08:59:53.607Z,39.50
2019-03-30T09:00:53.632Z,38.56
2019-03-30T09:01:53.589Z,38.43
2019-03-30T09:02:53.581Z,36.36
2019-03-30T09:03:53.567Z,35.29
2019-03-30T09:04:53.566Z,36.08
2019-03-30T09:05:53.549Z,37.13
2019-03-30T09:06:53.559Z,37.12
2019-03-30T09:07:53.533Z,37.55
2019-03-30T09:08:53.526Z,37.87
2019-03-30T09:09:53.509Z,37.67
2019-03-30T09:10:53.513Z,39.62
2019-03-30T09:11:53.494Z,38.84
2019-03-30T09:12:53.487Z,44.81
2019-03-30T09:13:53.483Z,46.86
2019-03-30T09:14:53.469Z,46.14
2019-03-30T09:15:53.452Z,45.01
2019-03-30T09:16:53.452Z,45.18
2019-03-30T09:17:53.435Z,45.26
2019-03-30T09:18:53.435Z,42.99
2019-03-30T09:19:53.414Z,45.09
2019-03-30T09:20:53.413Z,44.59
2019-03-30T09:21:53.393Z,45.10
2019-03-30T09:22:53.392Z,44.48
2019-03-30T09:23:53.379Z,44.56
2019-03-30T09:24:53.383Z,43.64
2019-03-30T09:25:53.359Z,44.87
2019-03-30T09:26:53.343Z,43.64
2019-03-30T09:27:53.339Z,44.08
2019-03-30T09:28:53.355Z,42.80
2019-03-30T09:29:53.321Z,42.57
2019-03-30T09:30:53.313Z,41.53
2019-03-30T09:31:53.297Z,42.57
2019-03-30T09:32:53.294Z,41.53
2019-03-30T09:33:53.276Z,41.47
2019-03-30T09:34:53.288Z,39.74
2019-03-30T09:35:53.264Z,40.16
2019-03-30T09:36:53.348Z,40.58
2019-03-30T09:37:53.239Z,41.47
2019-03-30T09:38:53.243Z,39.36
2019-03-30T09:39:53.226Z,39.64
2019-03-30T09:40:53.208Z,40.63
2019-03-30T09:41:53.212Z,40.05
2019-03-30T09:42:53.205Z,41.99
2019-03-30T09:43:53.181Z,41.66
2019-03-30T09:44:53.178Z,40.93
2019-03-30T09:45:53.163Z,41.74
2019-03-30T09:46:53.155Z,42.11
2019-03-30T09:47:53.146Z,40.81
2019-03-30T09:48:53.153Z,39.51
2019-03-30T09:49:53.127Z,41.60
2019-03-30T09:50:53.122Z,43.76
2019-03-30T09:51:53.109Z,45.18
2019-03-30T09:52:53.098Z,42.19
2019-03-30T09:53:53.094Z,40.85
2019-03-30T09:54:53.077Z,40.93
2019-03-30T09:55:53.069Z,40.83
2019-03-30T09:56:53.059Z,41.52
2019-03-30T09:57:53.072Z,40.50
2019-03-30T09:58:53.047Z,40.97
2019-03-30T09:59:53.032Z,43.76
2019-03-30T10:00:53.030Z,44.28
2019-03-30T10:01:53.011Z,44.18
2019-03-30T10:02:53.000Z,44.81
2019-03-30T10:03:52.990Z,46.64
2019-03-30T10:04:52.990Z,47.06
2019-03-30T10:05:52.971Z,47.96
2019-03-30T10:06:52.971Z,48.32
2019-03-30T10:07:52.952Z,47.20
2019-03-30T10:08:52.938Z,48.26
2019-03-30T10:09:52.944Z,48.79
2019-03-30T10:10:52.927Z,49.07
2019-03-30T10:46:08.163Z,46.03
2019-03-30T10:47:08.128Z,46.59
2019-03-30T11:39:18.663Z,40.05
2019-03-30T11:40:18.638Z,41.15
2019-03-30T11:41:49.372Z,40.25
2019-03-30T11:42:49.351Z,40.45
2019-03-30T11:44:20.113Z,41.66
2019-03-30T11:45:20.094Z,42.76
2019-03-30T11:46:50.827Z,41.35
2019-03-30T11:47:50.801Z,42.03
2019-03-30T11:49:21.470Z,39.93
2019-03-30T11:50:21.462Z,40.83
2019-03-30T11:51:52.209Z,41.35
2019-03-30T11:52:52.182Z,41.66
2019-03-30T11:54:22.936Z,41.93
2019-03-30T11:55:22.935Z,41.83
2019-03-30T11:56:53.687Z,40.91
2019-03-30T11:57:53.653Z,41.89
2019-03-30T11:59:24.369Z,39.69
2019-03-30T12:00:24.362Z,39.39
2019-03-30T12:01:55.044Z,39.72
2019-03-30T12:02:55.026Z,40.37
2019-03-30T12:04:25.789Z,40.31
2019-03-30T12:05:25.774Z,40.39
2019-03-30T12:06:56.414Z,40.07
2019-03-30T12:07:56.411Z,40.45
2019-03-30T12:09:27.192Z,41.79
2019-03-30T12:10:27.125Z,42.49
2019-03-30T12:11:57.884Z,42.92
2019-03-30T12:12:57.862Z,42.97
2019-03-30T12:13:57.853Z,43.04
2019-03-30T12:14:57.916Z,41.57
2019-03-30T12:15:57.830Z,40.53
2019-03-30T12:16:57.816Z,41.71
2019-03-30T12:17:57.808Z,41.31
2019-03-30T12:18:57.811Z,40.41
2019-03-30T12:19:57.794Z,41.61
2019-03-30T12:20:57.783Z,40.13
2019-03-30T12:21:57.774Z,40.37
2019-03-30T12:22:57.758Z,40.91
2019-03-30T12:23:57.757Z,40.33
2019-03-30T12:24:57.730Z,40.53
2019-03-30T12:25:57.729Z,39.99
2019-03-30T12:26:57.719Z,40.09
2019-03-30T12:27:57.766Z,39.65
2019-03-30T12:28:57.698Z,39.83
2019-03-30T12:29:57.693Z,39.63
2019-03-30T12:30:57.672Z,39.89
2019-03-30T12:31:57.662Z,39.69
2019-03-30T12:32:57.662Z,39.95
2019-03-30T12:33:57.645Z,36.99
2019-03-30T12:34:57.630Z,38.29
2019-03-30T12:35:57.615Z,38.09
2019-03-30T12:36:57.627Z,38.49
2019-03-30T12:37:57.590Z,38.38
2019-03-30T12:38:57.601Z,37.40
2019-03-30T12:39:58.428Z,38.01
2019-03-30T12:40:57.572Z,38.53
2019-03-30T12:41:57.554Z,38.93
2019-03-30T12:42:57.532Z,39.25
2019-03-30T12:43:57.534Z,39.81
2019-03-30T12:44:57.518Z,39.79
2019-03-30T12:45:57.513Z,40.33
2019-03-30T12:46:57.506Z,40.65
2019-03-30T12:47:57.492Z,39.84
2019-03-30T12:48:57.556Z,39.56
2019-03-30T12:49:57.466Z,39.84
2019-03-30T12:50:57.448Z,39.62
2019-03-30T12:51:57.458Z,39.01
2019-03-30T12:52:57.432Z,39.11
2019-03-30T12:53:57.430Z,39.61
2019-03-30T12:54:57.476Z,38.87
2019-03-30T12:55:57.390Z,38.23
2019-03-30T12:56:57.386Z,38.01
2019-03-30T12:57:57.385Z,37.90
2019-03-30T12:58:57.359Z,37.29
2019-03-30T13:00:58.338Z,35.41
2019-03-30T13:01:57.332Z,37.77
2019-03-30T13:02:57.320Z,35.60
2019-03-30T13:03:57.309Z,36.11
2019-03-30T13:04:57.298Z,36.21
2019-03-30T13:05:57.288Z,36.60
2019-03-30T13:06:57.285Z,36.69
2019-03-30T13:07:57.264Z,35.98
2019-03-30T13:08:57.258Z,36.49
2019-03-30T13:09:57.262Z,35.58
2019-03-30T13:10:57.228Z,35.58
2019-03-30T13:11:57.218Z,35.78
2019-03-30T13:12:57.231Z,35.78
2019-03-30T13:13:57.198Z,36.16
2019-03-30T13:14:57.199Z,35.71
2019-03-30T13:15:57.177Z,37.51
2019-03-30T13:16:57.168Z,36.91
2019-03-30T13:17:57.180Z,37.18
2019-03-30T13:18:57.150Z,36.44
2019-03-30T13:19:57.142Z,35.36
2019-03-30T13:20:57.124Z,35.88
2019-03-30T13:21:57.118Z,35.76
2019-03-30T13:22:57.103Z,35.53
2019-03-30T13:23:57.225Z,33.63
2019-03-30T13:24:57.089Z,34.63
2019-03-30T13:26:03.370Z,35.01
2019-03-30T13:26:58.061Z,34.81
2019-03-30T13:27:57.056Z,33.63
2019-03-30T13:28:57.051Z,34.55
2019-03-30T13:29:57.030Z,33.54
2019-03-30T13:30:57.028Z,35.39
2019-03-30T13:31:57.000Z,36.13
2019-03-30T13:32:57.000Z,36.15
2019-03-30T13:33:56.989Z,37.25
2019-03-30T13:34:56.980Z,36.90
2019-03-30T13:35:56.959Z,36.38
2019-03-30T13:36:57.000Z,35.86
2019-03-30T13:37:56.943Z,36.08
2019-03-30T13:38:56.936Z,35.48
2019-03-30T13:39:56.919Z,36.04
2019-03-30T13:40:56.921Z,35.71
2019-03-30T13:41:56.898Z,35.19
2019-03-30T13:42:56.894Z,34.28
2019-03-30T13:43:56.871Z,34.50
2019-03-30T13:44:56.860Z,33.88
2019-03-30T13:45:56.855Z,34.06
2019-03-30T13:46:56.848Z,33.55
2019-03-30T13:47:56.842Z,33.14
2019-03-30T13:48:56.816Z,32.54
2019-03-30T13:49:56.810Z,32.74
2019-03-30T13:50:56.803Z,31.16
2019-03-30T13:51:56.793Z,32.95
2019-03-30T13:52:56.778Z,32.57
2019-03-30T13:53:56.763Z,32.67
2019-03-30T13:54:56.753Z,33.18
2019-03-30T13:55:56.744Z,33.88
2019-03-30T13:56:56.731Z,32.80
2019-03-30T13:57:56.723Z,34.09
2019-03-30T13:58:56.714Z,33.00
2019-03-30T13:59:56.699Z,33.20
2019-03-30T14:00:56.692Z,33.65
2019-03-30T14:01:56.683Z,34.43
2019-03-30T14:02:56.664Z,34.55
2019-03-30T14:03:56.655Z,34.46
2019-03-30T14:04:56.651Z,34.13
2019-03-30T14:05:56.635Z,33.73
2019-03-30T14:06:56.621Z,33.50
2019-03-30T14:07:56.609Z,32.59
2019-03-30T14:08:56.602Z,32.78
2019-03-30T14:09:56.593Z,33.37
2019-03-30T14:10:56.585Z,32.07
2019-03-30T14:11:56.569Z,32.67
2019-03-30T14:12:56.555Z,32.17
2019-03-30T14:13:56.542Z,32.48
2019-03-30T14:14:56.526Z,33.60
2019-03-30T14:15:56.521Z,32.70
2019-03-30T14:16:56.509Z,31.69
2019-03-30T14:17:56.498Z,32.29
2019-03-30T14:18:56.570Z,31.86
2019-03-30T14:19:56.493Z,32.06
2019-03-30T14:20:56.471Z,30.75
2019-03-30T14:21:56.463Z,31.32
2019-03-30T14:22:56.445Z,31.02
2019-03-30T14:23:56.445Z,31.77
2019-03-30T14:24:56.439Z,33.28
2019-03-30T14:25:56.419Z,32.77